sensor_id;sensor_type;location;lat;lon;timestamp;P1;durP1;ratioP1;P2;durP2;ratioP2
59976;SDS011;45837;51.076;3.578;2022-08-11T00:02:32;2.38;;;1.45;;
59976;SDS011;45837;51.076;3.578;2022-08-11T00:05:04;2.20;;;1.08;;
59976;SDS011;45837;51.076;3.578;2022-08-11T00:07:48;2.03;;;1.20;;
59976;SDS011;45837;51.076;3.578;2022-08-11T00:10:20;1.70;;;1.00;;
59976;SDS011;45837;51.076;3.578;2022-08-11T00:13:05;1.85;;;1.30;;
59976;SDS011;45837;51.076;3.578;2022-08-11T00:15:40;2.22;;;1.38;;
59976;SDS011;45837;51.076;3.578;2022-08-11T00:18:08;2.35;;;1.48;;
59976;SDS011;45837;51.076;3.578;2022-08-11T00:20:37;2.35;;;1.30;;
59976;SDS011;45837;51.076;3.578;2022-08-11T00:23:06;2.17;;;1.20;;
59976;SDS011;45837;51.076;3.578;2022-08-11T00:26:08;1.73;;;1.13;;
59976;SDS011;45837;51.076;3.578;2022-08-11T00:28:31;2.25;;;1.40;;
59976;SDS011;45837;51.076;3.578;2022-08-11T00:31:00;2.15;;;1.35;;
59976;SDS011;45837;51.076;3.578;2022-08-11T00:33:37;2.45;;;1.27;;
59976;SDS011;45837;51.076;3.578;2022-08-11T00:36:08;2.35;;;1.40;;
59976;SDS011;45837;51.076;3.578;2022-08-11T00:38:36;2.03;;;1.20;;
59976;SDS011;45837;51.076;3.578;2022-08-11T00:49:38;1.92;;;1.10;;
59976;SDS011;45837;51.076;3.578;2022-08-11T01:12:17;2.47;;;1.20;;
59976;SDS011;45837;51.076;3.578;2022-08-11T01:26:19;2.50;;;1.50;;
59976;SDS011;45837;51.076;3.578;2022-08-11T01:29:53;1.70;;;1.20;;
59976;SDS011;45837;51.076;3.578;2022-08-11T01:32:33;2.33;;;1.30;;
59976;SDS011;45837;51.076;3.578;2022-08-11T01:35:34;2.10;;;1.27;;
59976;SDS011;45837;51.076;3.578;2022-08-11T01:39:02;1.90;;;1.30;;
59976;SDS011;45837;51.076;3.578;2022-08-11T01:50:19;1.45;;;1.08;;
59976;SDS011;45837;51.076;3.578;2022-08-11T01:59:03;2.13;;;1.20;;
59976;SDS011;45837;51.076;3.578;2022-08-11T02:07:30;2.03;;;1.23;;
59976;SDS011;45837;51.076;3.578;2022-08-11T02:10:11;2.78;;;1.55;;
59976;SDS011;45837;51.076;3.578;2022-08-11T02:12:59;1.60;;;1.10;;
59976;SDS011;45837;51.076;3.578;2022-08-11T02:15:38;2.25;;;1.40;;
59976;SDS011;45837;51.076;3.578;2022-08-11T02:18:23;1.60;;;1.00;;
59976;SDS011;45837;51.076;3.578;2022-08-11T02:21:23;2.08;;;1.40;;
59976;SDS011;45837;51.076;3.578;2022-08-11T02:24:40;1.65;;;1.10;;
59976;SDS011;45837;51.076;3.578;2022-08-11T02:27:17;1.60;;;1.10;;
59976;SDS011;45837;51.076;3.578;2022-08-11T02:29:57;1.83;;;1.10;;
59976;SDS011;45837;51.076;3.578;2022-08-11T02:32:45;2.63;;;1.10;;
59976;SDS011;45837;51.076;3.578;2022-08-11T02:41:20;1.75;;;1.17;;
59976;SDS011;45837;51.076;3.578;2022-08-11T02:44:37;1.60;;;0.98;;
59976;SDS011;45837;51.076;3.578;2022-08-11T02:50:41;2.20;;;1.20;;
59976;SDS011;45837;51.076;3.578;2022-08-11T02:53:36;1.90;;;1.20;;
59976;SDS011;45837;51.076;3.578;2022-08-11T02:56:31;2.17;;;1.08;;
59976;SDS011;45837;51.076;3.578;2022-08-11T02:59:18;1.98;;;1.17;;
59976;SDS011;45837;51.076;3.578;2022-08-11T03:14:32;2.90;;;1.20;;
59976;SDS011;45837;51.076;3.578;2022-08-11T03:17:13;2.05;;;1.23;;
59976;SDS011;45837;51.076;3.578;2022-08-11T03:33:46;1.85;;;1.25;;
59976;SDS011;45837;51.076;3.578;2022-08-11T03:40:10;2.33;;;1.30;;
59976;SDS011;45837;51.076;3.578;2022-08-11T03:45:16;1.60;;;1.10;;
59976;SDS011;45837;51.076;3.578;2022-08-11T04:02:37;1.67;;;1.02;;
59976;SDS011;45837;51.076;3.578;2022-08-11T04:14:03;2.10;;;1.27;;
59976;SDS011;45837;51.076;3.578;2022-08-11T04:22:51;2.28;;;1.20;;
59976;SDS011;45837;51.076;3.578;2022-08-11T04:31:59;1.95;;;1.30;;
59976;SDS011;45837;51.076;3.578;2022-08-11T04:37:58;2.10;;;1.25;;
59976;SDS011;45837;51.076;3.578;2022-08-11T04:40:39;3.25;;;1.10;;
59976;SDS011;45837;51.076;3.578;2022-08-11T05:01:54;1.98;;;1.10;;
59976;SDS011;45837;51.076;3.578;2022-08-11T05:13:47;1.57;;;1.00;;
59976;SDS011;45837;51.076;3.578;2022-08-11T05:16:49;2.47;;;1.10;;
59976;SDS011;45837;51.076;3.578;2022-08-11T05:19:36;2.35;;;1.35;;
59976;SDS011;45837;51.076;3.578;2022-08-11T05:22:22;1.85;;;1.17;;
59976;SDS011;45837;51.076;3.578;2022-08-11T05:25:14;2.20;;;1.20;;
59976;SDS011;45837;51.076;3.578;2022-08-11T05:31:14;3.13;;;1.27;;
59976;SDS011;45837;51.076;3.578;2022-08-11T05:34:02;1.42;;;0.98;;
59976;SDS011;45837;51.076;3.578;2022-08-11T05:37:11;1.50;;;1.02;;
59976;SDS011;45837;51.076;3.578;2022-08-11T05:40:15;2.05;;;1.40;;
59976;SDS011;45837;51.076;3.578;2022-08-11T05:43:01;2.28;;;1.20;;
59976;SDS011;45837;51.076;3.578;2022-08-11T05:46:01;1.95;;;1.17;;
59976;SDS011;45837;51.076;3.578;2022-08-11T05:48:47;1.77;;;0.95;;
59976;SDS011;45837;51.076;3.578;2022-08-11T05:51:34;2.33;;;1.25;;
59976;SDS011;45837;51.076;3.578;2022-08-11T05:54:19;1.95;;;1.13;;
59976;SDS011;45837;51.076;3.578;2022-08-11T05:57:04;2.30;;;1.30;;
59976;SDS011;45837;51.076;3.578;2022-08-11T05:59:31;2.10;;;1.30;;
59976;SDS011;45837;51.076;3.578;2022-08-11T06:02:01;2.20;;;1.25;;
59976;SDS011;45837;51.076;3.578;2022-08-11T06:04:28;2.28;;;1.10;;
59976;SDS011;45837;51.076;3.578;2022-08-11T06:07:00;1.90;;;1.13;;
59976;SDS011;45837;51.076;3.578;2022-08-11T06:09:37;2.00;;;1.33;;
59976;SDS011;45837;51.076;3.578;2022-08-11T06:12:16;1.48;;;1.10;;
59976;SDS011;45837;51.076;3.578;2022-08-11T06:14:43;1.88;;;1.00;;
59976;SDS011;45837;51.076;3.578;2022-08-11T06:17:10;2.40;;;1.38;;
59976;SDS011;45837;51.076;3.578;2022-08-11T06:19:41;2.17;;;1.40;;
59976;SDS011;45837;51.076;3.578;2022-08-11T06:22:11;1.80;;;1.13;;
59976;SDS011;45837;51.076;3.578;2022-08-11T06:24:39;1.75;;;1.00;;
59976;SDS011;45837;51.076;3.578;2022-08-11T06:27:18;2.08;;;1.20;;
59976;SDS011;45837;51.076;3.578;2022-08-11T06:29:49;2.30;;;1.27;;
59976;SDS011;45837;51.076;3.578;2022-08-11T06:32:15;3.08;;;1.38;;
59976;SDS011;45837;51.076;3.578;2022-08-11T06:40:42;4.28;;;1.40;;
59976;SDS011;45837;51.076;3.578;2022-08-11T06:43:37;1.92;;;1.20;;
59976;SDS011;45837;51.076;3.578;2022-08-11T06:46:11;2.95;;;1.73;;
59976;SDS011;45837;51.076;3.578;2022-08-11T06:48:42;2.67;;;1.20;;
59976;SDS011;45837;51.076;3.578;2022-08-11T06:51:10;4.13;;;1.40;;
59976;SDS011;45837;51.076;3.578;2022-08-11T06:56:07;2.55;;;1.38;;
59976;SDS011;45837;51.076;3.578;2022-08-11T06:58:54;2.53;;;1.50;;
59976;SDS011;45837;51.076;3.578;2022-08-11T07:01:46;3.25;;;1.50;;
59976;SDS011;45837;51.076;3.578;2022-08-11T07:04:34;3.97;;;1.50;;
59976;SDS011;45837;51.076;3.578;2022-08-11T07:13:43;2.88;;;1.70;;
59976;SDS011;45837;51.076;3.578;2022-08-11T07:16:28;6.25;;;1.70;;
59976;SDS011;45837;51.076;3.578;2022-08-11T07:19:00;3.28;;;1.92;;
59976;SDS011;45837;51.076;3.578;2022-08-11T07:21:47;3.42;;;1.80;;
59976;SDS011;45837;51.076;3.578;2022-08-11T07:24:38;2.15;;;1.40;;
59976;SDS011;45837;51.076;3.578;2022-08-11T07:27:26;2.15;;;1.30;;
59976;SDS011;45837;51.076;3.578;2022-08-11T07:30:15;3.75;;;1.52;;
59976;SDS011;45837;51.076;3.578;2022-08-11T07:32:51;2.60;;;1.52;;
59976;SDS011;45837;51.076;3.578;2022-08-11T07:35:20;3.33;;;1.40;;
59976;SDS011;45837;51.076;3.578;2022-08-11T07:38:01;2.40;;;1.38;;
59976;SDS011;45837;51.076;3.578;2022-08-11T07:40:30;4.45;;;1.58;;
59976;SDS011;45837;51.076;3.578;2022-08-11T07:42:58;2.30;;;1.58;;
59976;SDS011;45837;51.076;3.578;2022-08-11T07:45:25;2.50;;;1.27;;
59976;SDS011;45837;51.076;3.578;2022-08-11T07:48:10;2.97;;;1.42;;
59976;SDS011;45837;51.076;3.578;2022-08-11T07:50:56;5.57;;;1.45;;
59976;SDS011;45837;51.076;3.578;2022-08-11T07:53:42;2.78;;;1.60;;
59976;SDS011;45837;51.076;3.578;2022-08-11T07:56:09;2.00;;;1.38;;
59976;SDS011;45837;51.076;3.578;2022-08-11T07:58:40;5.65;;;1.63;;
59976;SDS011;45837;51.076;3.578;2022-08-11T08:01:25;3.08;;;1.50;;
59976;SDS011;45837;51.076;3.578;2022-08-11T08:04:13;3.83;;;1.80;;
59976;SDS011;45837;51.076;3.578;2022-08-11T08:06:59;2.75;;;1.60;;
59976;SDS011;45837;51.076;3.578;2022-08-11T08:09:45;2.72;;;1.60;;
59976;SDS011;45837;51.076;3.578;2022-08-11T08:12:31;2.65;;;1.60;;
59976;SDS011;45837;51.076;3.578;2022-08-11T08:15:18;2.88;;;1.60;;
59976;SDS011;45837;51.076;3.578;2022-08-11T08:18:05;3.42;;;1.60;;
59976;SDS011;45837;51.076;3.578;2022-08-11T08:20:46;2.10;;;1.42;;
59976;SDS011;45837;51.076;3.578;2022-08-11T08:23:18;2.85;;;1.55;;
59976;SDS011;45837;51.076;3.578;2022-08-11T08:26:06;2.85;;;1.73;;
59976;SDS011;45837;51.076;3.578;2022-08-11T08:28:55;3.70;;;1.48;;
59976;SDS011;45837;51.076;3.578;2022-08-11T08:31:43;2.53;;;1.63;;
59976;SDS011;45837;51.076;3.578;2022-08-11T08:34:10;4.15;;;1.52;;
59976;SDS011;45837;51.076;3.578;2022-08-11T08:36:38;2.78;;;1.67;;
59976;SDS011;45837;51.076;3.578;2022-08-11T08:39:07;2.53;;;1.55;;
59976;SDS011;45837;51.076;3.578;2022-08-11T08:41:33;2.70;;;1.60;;
59976;SDS011;45837;51.076;3.578;2022-08-11T08:44:03;2.60;;;1.20;;
59976;SDS011;45837;51.076;3.578;2022-08-11T08:46:35;2.67;;;1.50;;
59976;SDS011;45837;51.076;3.578;2022-08-11T08:49:05;2.63;;;1.67;;
59976;SDS011;45837;51.076;3.578;2022-08-11T08:51:35;3.55;;;1.80;;
59976;SDS011;45837;51.076;3.578;2022-08-11T08:54:08;5.72;;;2.00;;
59976;SDS011;45837;51.076;3.578;2022-08-11T08:56:39;3.53;;;1.52;;
59976;SDS011;45837;51.076;3.578;2022-08-11T08:59:05;4.00;;;1.60;;
59976;SDS011;45837;51.076;3.578;2022-08-11T09:01:35;8.07;;;1.70;;
59976;SDS011;45837;51.076;3.578;2022-08-11T09:04:07;5.03;;;1.45;;
59976;SDS011;45837;51.076;3.578;2022-08-11T09:06:37;2.63;;;1.70;;
59976;SDS011;45837;51.076;3.578;2022-08-11T09:09:05;5.03;;;1.75;;
59976;SDS011;45837;51.076;3.578;2022-08-11T09:11:36;4.60;;;2.03;;
59976;SDS011;45837;51.076;3.578;2022-08-11T09:14:26;3.13;;;1.83;;
59976;SDS011;45837;51.076;3.578;2022-08-11T09:17:20;4.82;;;1.70;;
59976;SDS011;45837;51.076;3.578;2022-08-11T09:19:48;3.08;;;1.67;;
59976;SDS011;45837;51.076;3.578;2022-08-11T09:22:23;2.53;;;1.40;;
59976;SDS011;45837;51.076;3.578;2022-08-11T09:25:15;3.92;;;2.13;;
59976;SDS011;45837;51.076;3.578;2022-08-11T09:28:01;3.45;;;1.80;;
59976;SDS011;45837;51.076;3.578;2022-08-11T09:30:29;3.55;;;1.60;;
59976;SDS011;45837;51.076;3.578;2022-08-11T09:32:58;4.53;;;1.70;;
59976;SDS011;45837;51.076;3.578;2022-08-11T09:35:29;2.35;;;1.60;;
59976;SDS011;45837;51.076;3.578;2022-08-11T09:37:58;4.60;;;2.13;;
59976;SDS011;45837;51.076;3.578;2022-08-11T09:40:44;3.13;;;1.80;;
59976;SDS011;45837;51.076;3.578;2022-08-11T09:43:12;3.83;;;1.92;;
59976;SDS011;45837;51.076;3.578;2022-08-11T09:45:59;5.10;;;1.65;;
59976;SDS011;45837;51.076;3.578;2022-08-11T09:48:28;3.33;;;1.95;;
59976;SDS011;45837;51.076;3.578;2022-08-11T09:50:57;4.05;;;1.83;;
59976;SDS011;45837;51.076;3.578;2022-08-11T09:53:26;5.50;;;1.60;;
59976;SDS011;45837;51.076;3.578;2022-08-11T09:55:55;8.30;;;1.95;;
59976;SDS011;45837;51.076;3.578;2022-08-11T09:58:21;4.15;;;1.75;;
59976;SDS011;45837;51.076;3.578;2022-08-11T10:00:49;4.07;;;1.92;;
59976;SDS011;45837;51.076;3.578;2022-08-11T10:03:19;4.30;;;1.77;;
59976;SDS011;45837;51.076;3.578;2022-08-11T10:06:08;3.85;;;2.10;;
59976;SDS011;45837;51.076;3.578;2022-08-11T10:08:53;3.63;;;1.80;;
59976;SDS011;45837;51.076;3.578;2022-08-11T10:11:20;2.30;;;1.58;;
59976;SDS011;45837;51.076;3.578;2022-08-11T10:13:47;2.45;;;1.40;;
59976;SDS011;45837;51.076;3.578;2022-08-11T10:16:34;2.83;;;1.67;;
59976;SDS011;45837;51.076;3.578;2022-08-11T10:19:04;4.32;;;2.03;;
59976;SDS011;45837;51.076;3.578;2022-08-11T10:21:31;3.10;;;1.70;;
59976;SDS011;45837;51.076;3.578;2022-08-11T10:24:02;3.50;;;1.75;;
59976;SDS011;45837;51.076;3.578;2022-08-11T10:26:49;2.88;;;1.67;;
59976;SDS011;45837;51.076;3.578;2022-08-11T10:29:26;3.58;;;2.00;;
59976;SDS011;45837;51.076;3.578;2022-08-11T10:32:14;3.03;;;1.73;;
59976;SDS011;45837;51.076;3.578;2022-08-11T10:35:04;2.60;;;1.77;;
59976;SDS011;45837;51.076;3.578;2022-08-11T10:37:33;3.67;;;2.20;;
59976;SDS011;45837;51.076;3.578;2022-08-11T10:40:01;2.97;;;1.88;;
59976;SDS011;45837;51.076;3.578;2022-08-11T10:42:30;4.63;;;1.80;;
59976;SDS011;45837;51.076;3.578;2022-08-11T10:45:15;7.22;;;2.20;;
59976;SDS011;45837;51.076;3.578;2022-08-11T10:48:00;3.25;;;2.03;;
59976;SDS011;45837;51.076;3.578;2022-08-11T10:50:28;3.30;;;1.90;;
59976;SDS011;45837;51.076;3.578;2022-08-11T10:53:13;4.75;;;1.90;;
59976;SDS011;45837;51.076;3.578;2022-08-11T10:56:00;3.25;;;2.10;;
59976;SDS011;45837;51.076;3.578;2022-08-11T10:58:46;3.90;;;2.03;;
59976;SDS011;45837;51.076;3.578;2022-08-11T11:01:23;3.00;;;1.65;;
59976;SDS011;45837;51.076;3.578;2022-08-11T11:03:59;4.03;;;1.73;;
59976;SDS011;45837;51.076;3.578;2022-08-11T11:06:58;5.32;;;2.00;;
59976;SDS011;45837;51.076;3.578;2022-08-11T11:09:48;4.22;;;2.20;;
59976;SDS011;45837;51.076;3.578;2022-08-11T11:12:19;3.00;;;1.83;;
59976;SDS011;45837;51.076;3.578;2022-08-11T11:15:33;2.75;;;1.65;;
59976;SDS011;45837;51.076;3.578;2022-08-11T11:18:26;2.47;;;1.70;;
59976;SDS011;45837;51.076;3.578;2022-08-11T11:31:55;2.33;;;1.70;;
59976;SDS011;45837;51.076;3.578;2022-08-11T11:37:33;3.20;;;1.90;;
59976;SDS011;45837;51.076;3.578;2022-08-11T11:40:00;2.67;;;1.60;;
59976;SDS011;45837;51.076;3.578;2022-08-11T11:42:34;3.08;;;1.80;;
59976;SDS011;45837;51.076;3.578;2022-08-11T11:45:01;3.80;;;1.77;;
59976;SDS011;45837;51.076;3.578;2022-08-11T11:47:27;3.97;;;1.80;;
59976;SDS011;45837;51.076;3.578;2022-08-11T11:49:55;2.78;;;1.80;;
59976;SDS011;45837;51.076;3.578;2022-08-11T11:52:21;5.03;;;1.80;;
59976;SDS011;45837;51.076;3.578;2022-08-11T11:54:49;2.78;;;1.80;;
59976;SDS011;45837;51.076;3.578;2022-08-11T11:57:18;3.50;;;1.85;;
59976;SDS011;45837;51.076;3.578;2022-08-11T12:00:04;4.45;;;1.80;;
59976;SDS011;45837;51.076;3.578;2022-08-11T12:02:51;3.78;;;1.65;;
59976;SDS011;45837;51.076;3.578;2022-08-11T12:05:17;3.97;;;2.00;;
59976;SDS011;45837;51.076;3.578;2022-08-11T12:07:44;5.45;;;1.90;;
59976;SDS011;45837;51.076;3.578;2022-08-11T12:10:29;3.97;;;2.05;;
59976;SDS011;45837;51.076;3.578;2022-08-11T12:12:57;4.35;;;2.08;;
59976;SDS011;45837;51.076;3.578;2022-08-11T12:15:44;4.13;;;1.85;;
59976;SDS011;45837;51.076;3.578;2022-08-11T12:18:11;3.42;;;1.80;;
59976;SDS011;45837;51.076;3.578;2022-08-11T12:20:38;3.35;;;1.77;;
59976;SDS011;45837;51.076;3.578;2022-08-11T12:23:04;4.82;;;1.63;;
59976;SDS011;45837;51.076;3.578;2022-08-11T12:25:49;5.47;;;1.75;;
59976;SDS011;45837;51.076;3.578;2022-08-11T12:28:33;3.30;;;2.13;;
59976;SDS011;45837;51.076;3.578;2022-08-11T12:30:59;3.15;;;1.98;;
59976;SDS011;45837;51.076;3.578;2022-08-11T12:33:26;3.17;;;1.80;;
59976;SDS011;45837;51.076;3.578;2022-08-11T12:35:55;3.95;;;2.15;;
59976;SDS011;45837;51.076;3.578;2022-08-11T12:38:23;2.67;;;1.90;;
59976;SDS011;45837;51.076;3.578;2022-08-11T12:40:49;3.40;;;2.08;;
59976;SDS011;45837;51.076;3.578;2022-08-11T12:43:35;3.40;;;2.15;;
59976;SDS011;45837;51.076;3.578;2022-08-11T12:46:21;4.72;;;1.95;;
59976;SDS011;45837;51.076;3.578;2022-08-11T12:48:58;4.22;;;2.10;;
59976;SDS011;45837;51.076;3.578;2022-08-11T12:51:51;3.75;;;2.00;;
59976;SDS011;45837;51.076;3.578;2022-08-11T12:57:16;3.03;;;2.03;;
59976;SDS011;45837;51.076;3.578;2022-08-11T13:00:21;4.05;;;1.95;;
59976;SDS011;45837;51.076;3.578;2022-08-11T13:03:09;4.13;;;2.13;;
59976;SDS011;45837;51.076;3.578;2022-08-11T13:05:56;3.05;;;2.08;;
59976;SDS011;45837;51.076;3.578;2022-08-11T13:08:25;2.42;;;1.83;;
59976;SDS011;45837;51.076;3.578;2022-08-11T13:10:53;5.15;;;1.67;;
59976;SDS011;45837;51.076;3.578;2022-08-11T13:13:40;4.00;;;1.70;;
59976;SDS011;45837;51.076;3.578;2022-08-11T13:16:08;3.50;;;2.20;;
59976;SDS011;45837;51.076;3.578;2022-08-11T13:18:35;4.65;;;1.73;;
59976;SDS011;45837;51.076;3.578;2022-08-11T13:21:03;3.90;;;2.00;;
59976;SDS011;45837;51.076;3.578;2022-08-11T13:23:29;2.88;;;1.90;;
59976;SDS011;45837;51.076;3.578;2022-08-11T13:25:56;3.28;;;1.63;;
59976;SDS011;45837;51.076;3.578;2022-08-11T13:28:22;2.58;;;1.65;;
59976;SDS011;45837;51.076;3.578;2022-08-11T13:30:48;3.33;;;2.20;;
59976;SDS011;45837;51.076;3.578;2022-08-11T13:33:40;3.88;;;2.00;;
59976;SDS011;45837;51.076;3.578;2022-08-11T13:36:09;6.68;;;2.00;;
59976;SDS011;45837;51.076;3.578;2022-08-11T13:38:36;4.80;;;1.98;;
59976;SDS011;45837;51.076;3.578;2022-08-11T13:41:06;3.95;;;2.20;;
59976;SDS011;45837;51.076;3.578;2022-08-11T13:43:53;4.45;;;2.03;;
59976;SDS011;45837;51.076;3.578;2022-08-11T13:46:21;2.95;;;1.83;;
59976;SDS011;45837;51.076;3.578;2022-08-11T13:48:51;2.80;;;2.00;;
59976;SDS011;45837;51.076;3.578;2022-08-11T13:51:20;3.67;;;1.60;;
59976;SDS011;45837;51.076;3.578;2022-08-11T13:53:57;5.03;;;1.85;;
59976;SDS011;45837;51.076;3.578;2022-08-11T13:56:25;3.40;;;2.17;;
59976;SDS011;45837;51.076;3.578;2022-08-11T13:58:53;3.78;;;2.10;;
59976;SDS011;45837;51.076;3.578;2022-08-11T14:01:20;3.08;;;2.00;;
59976;SDS011;45837;51.076;3.578;2022-08-11T14:03:48;4.70;;;2.17;;
59976;SDS011;45837;51.076;3.578;2022-08-11T14:06:16;2.50;;;1.70;;
59976;SDS011;45837;51.076;3.578;2022-08-11T14:08:43;4.30;;;2.03;;
59976;SDS011;45837;51.076;3.578;2022-08-11T14:11:10;4.32;;;2.03;;
59976;SDS011;45837;51.076;3.578;2022-08-11T14:13:55;4.03;;;2.05;;
59976;SDS011;45837;51.076;3.578;2022-08-11T14:16:24;3.88;;;2.00;;
59976;SDS011;45837;51.076;3.578;2022-08-11T14:18:53;2.85;;;1.88;;
59976;SDS011;45837;51.076;3.578;2022-08-11T14:21:23;3.47;;;2.00;;
59976;SDS011;45837;51.076;3.578;2022-08-11T14:24:08;3.63;;;1.90;;
59976;SDS011;45837;51.076;3.578;2022-08-11T14:26:36;5.57;;;2.05;;
59976;SDS011;45837;51.076;3.578;2022-08-11T14:31:43;3.63;;;1.90;;
59976;SDS011;45837;51.076;3.578;2022-08-11T14:34:11;3.67;;;2.33;;
59976;SDS011;45837;51.076;3.578;2022-08-11T14:36:39;3.80;;;1.92;;
59976;SDS011;45837;51.076;3.578;2022-08-11T14:39:09;3.10;;;1.80;;
59976;SDS011;45837;51.076;3.578;2022-08-11T14:41:59;3.00;;;2.17;;
59976;SDS011;45837;51.076;3.578;2022-08-11T14:44:53;3.08;;;1.90;;
59976;SDS011;45837;51.076;3.578;2022-08-11T14:47:28;3.65;;;2.08;;
59976;SDS011;45837;51.076;3.578;2022-08-11T14:49:56;4.60;;;2.13;;
59976;SDS011;45837;51.076;3.578;2022-08-11T14:52:24;4.43;;;2.00;;
59976;SDS011;45837;51.076;3.578;2022-08-11T14:54:51;3.42;;;2.17;;
59976;SDS011;45837;51.076;3.578;2022-08-11T14:57:37;3.33;;;2.00;;
59976;SDS011;45837;51.076;3.578;2022-08-11T15:00:06;2.78;;;1.75;;
59976;SDS011;45837;51.076;3.578;2022-08-11T15:02:37;3.17;;;1.80;;
59976;SDS011;45837;51.076;3.578;2022-08-11T15:05:23;4.55;;;2.10;;
59976;SDS011;45837;51.076;3.578;2022-08-11T15:07:50;2.92;;;1.90;;
59976;SDS011;45837;51.076;3.578;2022-08-11T15:10:17;2.95;;;1.98;;
59976;SDS011;45837;51.076;3.578;2022-08-11T15:12:45;3.53;;;1.90;;
59976;SDS011;45837;51.076;3.578;2022-08-11T15:15:12;5.88;;;1.80;;
59976;SDS011;45837;51.076;3.578;2022-08-11T15:17:57;3.50;;;1.92;;
59976;SDS011;45837;51.076;3.578;2022-08-11T15:20:26;2.45;;;1.58;;
59976;SDS011;45837;51.076;3.578;2022-08-11T15:23:11;3.17;;;2.30;;
59976;SDS011;45837;51.076;3.578;2022-08-11T15:26:01;3.80;;;1.95;;
59976;SDS011;45837;51.076;3.578;2022-08-11T15:28:33;2.92;;;2.03;;
59976;SDS011;45837;51.076;3.578;2022-08-11T15:31:22;4.00;;;1.80;;
59976;SDS011;45837;51.076;3.578;2022-08-11T15:34:11;4.93;;;2.17;;
59976;SDS011;45837;51.076;3.578;2022-08-11T15:37:06;4.55;;;1.90;;
59976;SDS011;45837;51.076;3.578;2022-08-11T15:45:39;3.80;;;2.17;;
59976;SDS011;45837;51.076;3.578;2022-08-11T15:49:17;3.08;;;2.05;;
59976;SDS011;45837;51.076;3.578;2022-08-11T15:51:16;2.65;;;1.77;;
59976;SDS011;45837;51.076;3.578;2022-08-11T15:53:50;3.75;;;1.92;;
59976;SDS011;45837;51.076;3.578;2022-08-11T15:56:19;3.40;;;2.20;;
59976;SDS011;45837;51.076;3.578;2022-08-11T15:58:47;4.47;;;2.00;;
59976;SDS011;45837;51.076;3.578;2022-08-11T16:01:34;3.28;;;2.25;;
59976;SDS011;45837;51.076;3.578;2022-08-11T16:04:22;3.00;;;2.00;;
59976;SDS011;45837;51.076;3.578;2022-08-11T16:07:00;2.80;;;2.00;;
59976;SDS011;45837;51.076;3.578;2022-08-11T16:09:35;3.28;;;1.95;;
59976;SDS011;45837;51.076;3.578;2022-08-11T16:12:10;2.88;;;1.92;;
59976;SDS011;45837;51.076;3.578;2022-08-11T16:14:57;3.17;;;2.17;;
59976;SDS011;45837;51.076;3.578;2022-08-11T16:17:44;3.60;;;2.38;;
59976;SDS011;45837;51.076;3.578;2022-08-11T16:20:15;3.78;;;1.90;;
59976;SDS011;45837;51.076;3.578;2022-08-11T16:22:44;2.47;;;1.55;;
59976;SDS011;45837;51.076;3.578;2022-08-11T16:25:22;3.10;;;2.25;;
59976;SDS011;45837;51.076;3.578;2022-08-11T16:27:50;4.22;;;2.13;;
59976;SDS011;45837;51.076;3.578;2022-08-11T16:30:19;3.50;;;2.08;;
59976;SDS011;45837;51.076;3.578;2022-08-11T16:32:47;3.30;;;1.90;;
59976;SDS011;45837;51.076;3.578;2022-08-11T16:35:21;3.20;;;2.00;;
59976;SDS011;45837;51.076;3.578;2022-08-11T16:38:07;3.53;;;2.05;;
59976;SDS011;45837;51.076;3.578;2022-08-11T16:40:55;2.10;;;1.60;;
59976;SDS011;45837;51.076;3.578;2022-08-11T16:43:23;2.88;;;1.88;;
59976;SDS011;45837;51.076;3.578;2022-08-11T16:46:11;2.70;;;1.83;;
59976;SDS011;45837;51.076;3.578;2022-08-11T16:48:59;3.10;;;2.03;;
59976;SDS011;45837;51.076;3.578;2022-08-11T16:51:28;4.63;;;2.47;;
59976;SDS011;45837;51.076;3.578;2022-08-11T16:53:55;2.97;;;2.05;;
59976;SDS011;45837;51.076;3.578;2022-08-11T16:56:26;7.72;;;2.30;;
59976;SDS011;45837;51.076;3.578;2022-08-11T16:58:56;2.85;;;1.83;;
59976;SDS011;45837;51.076;3.578;2022-08-11T17:01:46;4.22;;;2.15;;
59976;SDS011;45837;51.076;3.578;2022-08-11T17:04:30;5.20;;;2.28;;
59976;SDS011;45837;51.076;3.578;2022-08-11T17:07:28;2.80;;;1.90;;
59976;SDS011;45837;51.076;3.578;2022-08-11T17:10:21;3.60;;;2.15;;
59976;SDS011;45837;51.076;3.578;2022-08-11T17:13:10;2.92;;;1.77;;
59976;SDS011;45837;51.076;3.578;2022-08-11T17:15:47;4.63;;;1.92;;
59976;SDS011;45837;51.076;3.578;2022-08-11T17:18:30;4.88;;;2.35;;
59976;SDS011;45837;51.076;3.578;2022-08-11T17:21:54;3.20;;;1.88;;
59976;SDS011;45837;51.076;3.578;2022-08-11T17:24:00;2.90;;;2.03;;
59976;SDS011;45837;51.076;3.578;2022-08-11T17:26:31;3.30;;;2.10;;
59976;SDS011;45837;51.076;3.578;2022-08-11T17:29:29;3.38;;;2.10;;
59976;SDS011;45837;51.076;3.578;2022-08-11T17:31:58;4.22;;;2.00;;
59976;SDS011;45837;51.076;3.578;2022-08-11T17:34:45;5.18;;;1.98;;
59976;SDS011;45837;51.076;3.578;2022-08-11T17:37:32;3.15;;;2.13;;
59976;SDS011;45837;51.076;3.578;2022-08-11T17:40:02;3.22;;;2.00;;
59976;SDS011;45837;51.076;3.578;2022-08-11T17:42:31;2.80;;;2.00;;
59976;SDS011;45837;51.076;3.578;2022-08-11T17:45:17;2.70;;;1.90;;
59976;SDS011;45837;51.076;3.578;2022-08-11T17:48:03;3.20;;;2.05;;
59976;SDS011;45837;51.076;3.578;2022-08-11T17:50:48;2.65;;;1.90;;
59976;SDS011;45837;51.076;3.578;2022-08-11T17:53:37;2.78;;;1.73;;
59976;SDS011;45837;51.076;3.578;2022-08-11T17:56:26;4.30;;;1.63;;
59976;SDS011;45837;51.076;3.578;2022-08-11T17:59:12;2.55;;;1.80;;
59976;SDS011;45837;51.076;3.578;2022-08-11T18:01:59;3.20;;;1.90;;
59976;SDS011;45837;51.076;3.578;2022-08-11T18:04:46;3.63;;;2.05;;
59976;SDS011;45837;51.076;3.578;2022-08-11T18:07:15;4.30;;;1.98;;
59976;SDS011;45837;51.076;3.578;2022-08-11T18:10:05;3.40;;;2.25;;
59976;SDS011;45837;51.076;3.578;2022-08-11T18:12:51;4.50;;;1.70;;
59976;SDS011;45837;51.076;3.578;2022-08-11T18:15:38;2.80;;;2.00;;
59976;SDS011;45837;51.076;3.578;2022-08-11T18:18:23;4.55;;;2.30;;
59976;SDS011;45837;51.076;3.578;2022-08-11T18:21:09;4.05;;;1.95;;
59976;SDS011;45837;51.076;3.578;2022-08-11T18:23:56;3.15;;;1.95;;
59976;SDS011;45837;51.076;3.578;2022-08-11T18:26:43;2.80;;;1.75;;
59976;SDS011;45837;51.076;3.578;2022-08-11T18:29:29;4.93;;;1.92;;
59976;SDS011;45837;51.076;3.578;2022-08-11T18:32:16;3.22;;;1.95;;
59976;SDS011;45837;51.076;3.578;2022-08-11T18:35:01;2.72;;;1.73;;
59976;SDS011;45837;51.076;3.578;2022-08-11T18:37:49;2.60;;;1.70;;
59976;SDS011;45837;51.076;3.578;2022-08-11T18:40:35;4.82;;;2.10;;
59976;SDS011;45837;51.076;3.578;2022-08-11T18:43:21;2.83;;;1.75;;
59976;SDS011;45837;51.076;3.578;2022-08-11T18:46:07;3.10;;;2.00;;
59976;SDS011;45837;51.076;3.578;2022-08-11T18:48:55;3.10;;;1.73;;
59976;SDS011;45837;51.076;3.578;2022-08-11T18:51:46;2.97;;;1.80;;
59976;SDS011;45837;51.076;3.578;2022-08-11T18:54:34;3.10;;;1.90;;
59976;SDS011;45837;51.076;3.578;2022-08-11T18:57:20;2.47;;;1.50;;
59976;SDS011;45837;51.076;3.578;2022-08-11T19:00:06;2.67;;;1.70;;
59976;SDS011;45837;51.076;3.578;2022-08-11T19:02:52;3.45;;;1.80;;
59976;SDS011;45837;51.076;3.578;2022-08-11T19:05:38;2.65;;;1.92;;
59976;SDS011;45837;51.076;3.578;2022-08-11T19:08:28;3.25;;;2.20;;
59976;SDS011;45837;51.076;3.578;2022-08-11T19:11:16;3.28;;;1.70;;
59976;SDS011;45837;51.076;3.578;2022-08-11T19:14:02;3.38;;;2.00;;
59976;SDS011;45837;51.076;3.578;2022-08-11T19:16:47;4.18;;;1.90;;
59976;SDS011;45837;51.076;3.578;2022-08-11T19:19:34;2.40;;;1.67;;
59976;SDS011;45837;51.076;3.578;2022-08-11T19:22:21;3.38;;;2.08;;
59976;SDS011;45837;51.076;3.578;2022-08-11T19:25:06;3.38;;;1.70;;
59976;SDS011;45837;51.076;3.578;2022-08-11T19:27:53;1.83;;;1.35;;
59976;SDS011;45837;51.076;3.578;2022-08-11T19:30:39;3.55;;;2.00;;
59976;SDS011;45837;51.076;3.578;2022-08-11T19:33:24;2.53;;;1.60;;